Caliente, Nevada Weather observations

Data are for observation ending at time listed.
 Day   Time    Ave.   Ave.  Ave.  Vector   Max.   Stn.    Total    Solar   Ave.  
  of    of     Air    Rel.  Wind   Wind    Wind   Baro.  Precip.   Rad.    Soil  
Year   Day     Temp.  Hum.  Speed  Dir.    Gust   Pres.                    Temp. 
2015   (PST)    F      %     mph   deg.    mph     mb.     in.     W/m2     F   
------------------------------------------------------------------------------
  91    0:30   55.8    16    2.7   242      5.4   862.5    0.00       0    66.4
  91    0:40   56.2    14    2.9   236      5.3   862.5    0.00       0    66.2
  91    0:50   56.8    12    1.8   201      4.7   862.5    0.00       0    66.0
  91    1:00   56.9    12    1.9   249      4.9   862.7    0.00       0    65.9
  91    1:10   55.9    12    1.7   242      6.6   862.8    0.00       0    65.7
  91    1:20   55.2    12    3.1   239      8.0   862.9    0.00       0    65.5
  91    1:30   54.4    13    4.4   240      6.9   863.0    0.00       0    65.3
  91    1:40   53.3    14    6.6   249      8.8   863.1    0.00       0    65.2
  91    1:50   55.0    12    9.3   256     15.3   863.0    0.00       0    65.0
  91    2:00   55.6    11    9.0   256     13.6   863.1    0.00       0    64.8
  91    2:10   54.9    11    7.4   255     11.5   863.2    0.00       0    64.6
  91    2:20   54.5    12    5.3   252      9.5   863.4    0.00       0    64.5
  91    2:30   54.0    12    8.2   250     13.3   863.4    0.00       0    64.3
  91    2:40   53.9    12    5.5   254     10.5   863.5    0.00       0    64.2
  91    2:50   53.3    13    2.8   344      7.7   863.7    0.00       0    64.0
  91    3:00   53.7    12    2.4   267      7.9   863.8    0.00       0    63.9
  91    3:10   53.4    13    3.3   272      7.0   863.9    0.00       0    63.7
  91    3:20   52.5    14    1.3   151      3.8   864.1    0.00       0    63.6
  91    3:30   51.9    15    1.4   153      4.2   864.2    0.00       0    63.5
  91    3:40   51.2    16    2.6   238      6.6   864.2    0.00       0    63.3
  91    3:50   50.4    17    2.0   259      5.2   864.3    0.00       0    63.2
  91    4:00   48.0    20    0.7   340      3.2   864.4    0.00       0    63.0
  91    4:10   46.5    21    0.7   342      3.4   864.7    0.00       0    62.9
  91    4:20   45.6    24    0.5    36      2.6   864.8    0.00       0    62.7
  91    4:30   44.7    24    1.3    18      4.5   865.0    0.00       0    62.6
  91    4:40   44.1    24    2.0    80      4.2   865.1    0.00       0    62.4
  91    4:50   44.2    24    1.7    39      3.7   865.3    0.00       0    62.2
  91    5:00   44.7    23    2.6    48      6.2   865.4    0.00       0    62.0
  91    5:10   44.0    24    2.8    55      6.0   865.7    0.00       0    61.9
  91    5:20   43.3    25    0.9   107      3.3   865.9    0.00       1    61.7
  91    5:30   42.7    25    0.5    92      2.1   866.0    0.00       3    61.5
  91    5:40   42.5    25    1.8    54      3.9   866.0    0.00       6    61.3
  91    5:50   42.2    27    1.4    97      3.4   866.2    0.00      15    61.2
  91    6:00   42.5    26    0.9    82      2.3   866.4    0.00      23    61.0
  91    6:10   43.1    26    0.9   221      2.1   866.7    0.00      29    60.8
  91    6:20   42.8    28    0.3   150      2.1   866.9    0.00      56    60.7
  91    6:30   44.1    27    0.5    84      2.0   866.9    0.00     106    60.5
  91    6:40   45.8    26    1.1   244      2.7   866.9    0.00     117    60.4
  91    6:50   47.7    27    2.0   355      7.7   866.9    0.00     114    60.3
  91    7:00   48.5    28    2.9     2      5.8   866.8    0.00      90    60.2
  91    7:10   48.6    29    2.3   349      4.2   867.0    0.00     119    60.1
  91    7:20   50.0    29    3.2    89      8.8   867.2    0.00     177    60.1
  91    7:30   50.0    28    4.9    99      9.2   867.2    0.00     242    60.0
  91    7:40   51.2    27    3.9    92      8.2   867.2    0.00     334    60.0
  91    7:50   52.0    26    4.1    92      8.6   867.3    0.00     364    59.9
  91    8:00   52.4    26    4.8    96     11.3   867.3    0.00     394    59.9
  91    8:10   52.9    25    4.4    93     10.1   867.5    0.00     420    59.9
  91    8:20   53.6    25    4.8    86     11.4   867.5    0.00     448    59.9
  91    8:30   54.0    25    4.3    73     10.3   867.6    0.00     474    59.9
  91    8:40   54.7    24    5.6    61     14.0   867.6    0.00     397    60.0
  91    8:50   55.3    24    4.6    83      8.6   867.5    0.00     307    60.0
  91    9:00   56.0    23    3.6    61      9.1   867.5    0.00     248    60.2
  91    9:10   57.1    22    3.0    63      8.8   867.4    0.00     448    60.3
  91    9:20   57.1    21    4.0    70      9.3   867.3    0.00     477    60.5
  91    9:30   56.7    22    4.2    94      9.9   867.1    0.00     557    60.6
  91    9:40   58.2    21    5.4    63     12.3   866.9    0.00     558    60.8
  91    9:50   58.0    20    3.4    95     10.0   866.5    0.00     593    61.1
  91   10:00   58.7    20    4.5    74     11.4   866.4    0.00     582    61.3
  91   10:10   59.4    19    4.8    43     12.3   866.4    0.00     588    61.5
  91   10:20   59.7    19    5.2   338     13.3   866.2    0.00     685    61.8
  91   10:30   60.1    18    3.6    40      8.7   866.2    0.00     697    62.3
  91   10:40   60.6    17    2.6    26      8.0   866.1    0.00     696    62.8
  91   10:50   60.4    16    3.3   282      9.0   865.9    0.00     701    63.1
  91   11:00   60.8    16    4.2   338     11.1   865.9    0.00     718    63.3
  91   11:10   60.9    16    4.8   308      9.4   865.8    0.00     738    63.4
  91   11:20   61.6    14    3.3    87     11.7   865.7    0.00     742    63.4
  91   11:30   62.0    12    2.3    84      6.6   865.6    0.00     744    63.4
  91   11:40   62.6    13    3.9   266      9.3   865.5    0.00     727    63.4
  91   11:50   62.7    13    4.2   243      9.0   865.4    0.00     739    63.5
  91   12:00   63.2    13    4.0   258     10.5   865.3    0.00     740    63.5
  91   12:10   63.5    12    3.3   306      8.1   865.2    0.00     745    63.5
  91   12:20   64.1    13    2.7   148      7.7   865.0    0.00     730    63.6
  91   12:30   65.0    13    3.0   170     12.5   864.7    0.00     721    63.7
  91   12:40   64.8    12    4.9   284      9.8   864.5    0.00     715    63.8
  91   12:50   65.3    12    2.5   273      7.4   864.3    0.00     725    63.9
  91   13:00   66.5    12    2.3   263      7.1   864.1    0.00     701    64.0
  91   13:10   67.0    12    1.9   222      5.8   863.9    0.00     696    64.0
  91   13:20   66.5    11    2.5   128      7.5   863.7    0.00     668    64.2
  91   13:30   66.4    10    1.7   103      7.1   863.4    0.00     628    64.4
  91   13:40   68.4    10    2.5   257     10.6   863.4    0.00     587    64.7
  91   13:50   68.0     6    6.2   268     10.4   863.3    0.00     611    65.2
  91   14:00   68.1     6    7.3   270     13.7   863.1    0.00     579    65.8
  91   14:10   67.5     6    8.2   261     15.6   863.0    0.00     539    66.5
  91   14:20   67.3     6    7.7   266     12.2   862.8    0.00     376    67.2
  91   14:30   66.9     6    6.5   255     13.9   862.6    0.00     333    67.8
  91   14:40   68.1     6    5.4   255     14.0   862.5    0.00     489    68.2
  91   14:50   67.3     7    6.9   272     11.8   862.3    0.00     464    68.6
  91   15:00   67.9     6    8.1   270     13.5   862.0    0.00     328    69.0
  91   15:10   68.2     6    6.2   258     11.2   861.8    0.00     303    69.3
  91   15:20   67.6     6    7.1   272     12.8   861.8    0.00     304    69.7
  91   15:30   67.8     6    6.2   268     11.2   861.6    0.00     341    69.9
  91   15:40   68.0     6    4.6   260      9.3   861.4    0.00     252    70.1
  91   15:50   67.9     6    5.2   253     10.8   861.3    0.00     236    70.3
  91   16:00   67.5     7    6.5   249     11.9   861.3    0.00     190    70.4
  91   16:10   67.7     7    2.9   162      7.8   861.3    0.00     223    70.5
  91   16:20   67.6     7    2.7   178      8.9   861.2    0.00     182    70.6
  91   16:30   67.1     7    5.4   240     10.7   861.1    0.00     163    70.7
  91   16:40   66.7     6    6.1   248     10.6   861.0    0.00     128    70.7
  91   16:50   66.3     6    5.5   248     11.3   861.0    0.00      97    70.8
  91   17:00   65.8     6    6.1   248     11.7   860.9    0.00      81    70.7
  91   17:10   65.6     7    7.3   247     13.6   860.9    0.00      65    70.6
  91   17:20   65.4     7    7.9   248     13.0   860.8    0.00      53    70.5
  91   17:30   65.1     7    7.3   248     11.1   860.6    0.00      41    70.4
  91   17:40   64.7     8    2.6   241      6.9   860.5    0.00      28    70.2
  91   17:50   64.4     8    1.3   241      5.0   860.4    0.00      22    70.0
  91   18:00   64.1     9    1.3   208      4.6   860.4    0.00      12    69.9
  91   18:10   63.4     9    2.3   143      4.1   860.3    0.00       4    69.7
  91   18:20   62.5     9    1.9   133      3.8   860.3    0.00       3    69.5
  91   18:30   62.4     9    1.8   148      7.2   860.3    0.00       2    69.3
  91   18:40   61.2     9    1.3   135      2.3   860.4    0.00       1    69.1
  91   18:50   60.4     9    2.1   140      3.8   860.4    0.00       0    68.9
  91   19:00   59.9    10    0.8   261      2.2   860.5    0.00       1    68.8
  91   19:10   59.2    10    0.7   162      2.7   860.5    0.00       1    68.5
  91   19:20   58.6    11    1.2   291      3.3   860.5    0.00       0    68.3
  91   19:30   56.9    12    2.0   329      3.7   860.6    0.00       0    68.1
  91   19:40   57.0    12    1.5   276      3.9   860.6    0.00       0    67.9
  91   19:50   56.3    12    1.3   221      2.2   860.6    0.00       0    67.7
  91   20:00   55.4    13    0.6   243      1.9   860.6    0.00       0    67.4
  91   20:10   54.7    13    0.5   225      2.0   860.6    0.00       0    67.2
  91   20:20   53.6    15    0.8   248      2.3   860.5    0.00       0    67.0
  91   20:30   52.9    15    0.0     0      0.0   860.5    0.00       0    66.8
  91   20:40   52.2    15    0.0     0      0.0   860.4    0.00       0    66.7
  91   20:50   51.7    16    0.0   231      0.7   860.3    0.00       0    66.5
  91   21:00   51.5    16    0.2   246      1.0   860.3    0.00       0    66.2
  91   21:10   50.9    17    0.5   180      1.6   860.2    0.00       0    66.1
  91   21:20   50.6    16    0.1   118      1.5   860.1    0.00       0    65.9
  91   21:30   50.6    17    0.0     0      0.0   860.1    0.00       0    65.7
  91   21:40   50.5    17    0.0     0      0.0   860.0    0.00       0    65.6
  91   21:50   50.6    16    0.0     0      0.0   859.8    0.00       0    65.4
  91   22:00   50.3    17    0.2   175      0.9   859.8    0.00       0    65.3
  91   22:10   49.9    17    0.4    79      3.2   859.7    0.00       0    65.1
  91   22:20   50.0    17    0.8   104      2.7   859.6    0.00       0    65.0
  91   22:30   50.1    17    1.4   106      2.8   859.4    0.00       0    64.9
  91   22:40   50.1    18    0.4   151      1.8   859.3    0.00       0    64.7
  91   22:50   49.9    19    0.5   264      1.5   859.2    0.00       0    64.6
  91   23:00   49.8    19    1.3   239      2.9   859.2    0.00       0    64.5
  91   23:10   49.5    21    1.2   246      3.1   859.2    0.00       0    64.3
  91   23:20   48.8    21    0.7   168      1.8   859.1    0.00       0    64.2
  91   23:30   49.2    20    0.1    60      1.1   859.2    0.00       0    64.1
  91   23:40   49.6    20    0.4   343      1.7   859.2    0.00       0    63.9
  91   23:50   49.3    21    0.9   116      3.3   859.2    0.00       0    63.8
  92    0:00   49.3    20    1.2    85      3.2   859.1    0.00       0    63.6
  92    0:10   49.0    20    1.1    74      3.4   859.1    0.00       0    63.5
  92    0:20   48.2    22    2.4    96      5.2   859.2    0.00       0    63.4

Return to Caliente, Nevada graphs page.


Western Regional Climate Center,wrcc@dri.edu